Time;durP1;ratioP1;P1;durP2;ratioP2;P2;SDS_P1;SDS_P2;PMS_P1;PMS_P2;Temp;Humidity;BMP_temperature;BMP_pressure;BME280_temperature;BME280_humidity;BME280_pressure;Samples;Min_cycle;Max_cycle;Signal;HPM_P1;HPM_P2
2022/12/15 00:39:39;;;;;;;3.00;2.20;;;21.80;39.80;;;20.03;43.18;94496.19;4991657;28;20072;-61
2022/12/15 00:42:08;;;;;;;5.75;2.08;;;21.70;39.70;;;20.04;43.27;94498.56;4991838;28;20077;-60
2022/12/15 00:44:33;;;;;;;3.08;2.20;;;21.80;39.80;;;20.05;43.28;94497.50;4990088;28;20034;-60
2022/12/15 00:46:59;;;;;;;5.22;2.45;;;21.80;39.70;;;20.04;42.63;94506.56;4991634;28;20140;-60
2022/12/15 01:22:40;;;;;;;3.28;2.00;;;21.70;39.80;;;20.02;42.61;94523.97;4990353;28;20041;-60
2022/12/15 01:25:07;;;;;;;4.32;2.13;;;21.70;39.80;;;20.01;43.28;94525.84;5027123;23;20157;-27
2022/12/15 01:27:33;;;;;;;6.53;2.50;;;21.80;39.80;;;20.01;43.36;94523.16;5010473;28;20037;-27
2022/12/15 01:29:59;;;;;;;5.13;2.55;;;21.70;39.70;;;20.02;43.01;94540.78;5037485;28;20033;-28
2022/12/15 01:32:24;;;;;;;4.82;2.42;;;21.80;39.60;;;20.03;42.08;94545.03;5031347;28;20439;-28
2022/12/15 01:34:50;;;;;;;6.07;3.85;;;21.70;39.80;;;20.03;41.44;94539.69;5028380;28;20057;-27
2022/12/15 01:37:16;;;;;;;4.15;2.55;;;21.70;39.70;;;20.01;42.53;94544.53;5028941;28;20263;-27
2022/12/15 01:42:26;;;;;;;4.95;2.53;;;21.70;39.70;;;20.02;42.33;94546.09;5027997;28;20044;-29
2022/12/15 01:44:52;;;;;;;5.57;2.40;;;21.70;39.70;;;20.02;42.90;94546.09;5028737;28;20057;-28
2022/12/15 01:47:21;;;;;;;3.63;2.35;;;21.70;39.70;;;20.02;42.89;94546.09;5028596;28;20041;-27
2022/12/15 01:49:47;;;;;;;3.95;2.20;;;21.70;39.70;;;20.02;42.42;94550.66;4993796;28;20034;-28
2022/12/15 01:52:14;;;;;;;4.80;2.40;;;21.80;39.80;;;20.02;43.81;94556.78;4993977;28;20120;-31
2022/12/15 01:54:52;;;;;;;3.28;2.15;;;21.80;39.70;;;20.03;42.81;94553.03;5027890;28;20392;-27
2022/12/15 01:57:22;;;;;;;3.90;2.60;;;21.70;39.70;;;20.02;42.38;94567.47;5011233;28;20521;-29
2022/12/15 01:59:52;;;;;;;5.68;4.13;;;21.70;39.70;;;20.01;42.08;94552.53;5011236;28;20160;-28
2022/12/15 02:02:20;;;;;;;4.40;2.03;;;21.70;39.70;;;20.00;42.61;94545.59;5009649;28;20037;-36
2022/12/15 02:04:45;;;;;;;4.00;2.08;;;21.70;39.80;;;20.01;41.91;94563.19;4981635;28;20032;-28
2022/12/15 02:07:13;;;;;;;3.83;2.40;;;21.70;39.70;;;20.01;42.58;94557.06;5030456;28;20041;-29
2022/12/15 02:09:40;;;;;;;4.13;3.10;;;21.70;39.70;;;20.00;42.78;94548.28;5048066;28;20037;-33
2022/12/15 02:12:11;;;;;;;3.50;2.17;;;21.70;39.70;;;20.01;43.40;94552.53;5030452;28;20064;-33
2022/12/15 02:15:08;;;;;;;3.15;2.30;;;21.70;39.80;;;20.03;43.12;94555.69;5048500;28;20037;-30
2022/12/15 02:18:04;;;;;;;3.72;2.17;;;21.70;39.80;;;20.00;43.02;94566.94;5023186;28;20037;-30
2022/12/15 02:20:43;;;;;;;6.38;2.13;;;21.70;39.70;;;20.00;43.89;94566.16;5035079;28;20366;-30
2022/12/15 02:23:56;;;;;;;3.58;2.30;;;21.70;39.80;;;20.00;43.84;94566.94;5034950;28;20457;-30
2022/12/15 02:26:59;;;;;;;3.92;2.35;;;21.70;39.90;;;19.99;42.59;94577.91;5036493;28;20041;-32
2022/12/15 02:29:46;;;;;;;7.25;3.67;;;21.70;39.60;;;19.97;42.32;94570.19;5044208;28;20042;-30
2022/12/15 02:32:15;;;;;;;7.32;2.55;;;21.70;39.80;;;19.96;42.60;94571.28;5052519;28;20064;-31
2022/12/15 02:35:01;;;;;;;6.78;3.63;;;21.70;39.80;;;19.97;43.51;94582.75;5016631;28;20029;-31
2022/12/15 02:37:37;;;;;;;6.43;2.25;;;21.70;39.70;;;19.95;43.63;94596.38;5029027;28;20029;-31
2022/12/15 02:40:05;;;;;;;5.03;2.42;;;21.70;39.80;;;19.95;43.31;94603.59;5015211;28;20050;-30
2022/12/15 02:42:30;;;;;;;4.75;2.63;;;21.70;39.80;;;19.96;42.67;94611.31;5048919;28;20029;-30
2022/12/15 02:45:03;;;;;;;5.82;2.10;;;21.70;39.80;;;19.95;43.22;94606.25;5052588;28;20574;-31
2022/12/15 02:48:22;;;;;;;7.13;3.25;;;21.70;39.90;;;19.96;43.04;94621.97;5034768;28;20055;-30
2022/12/15 02:50:57;;;;;;;4.35;3.60;;;21.70;39.80;;;19.94;42.91;94618.81;5039544;28;20061;-30
2022/12/15 02:53:46;;;;;;;4.75;2.67;;;21.70;39.90;;;19.95;43.26;94624.94;5035548;28;20037;-30
2022/12/15 02:56:25;;;;;;;6.03;3.05;;;21.70;39.90;;;19.94;42.50;94618.00;5034325;28;20124;-30
2022/12/15 02:59:21;;;;;;;3.38;2.17;;;21.70;39.90;;;19.94;43.61;94624.13;5050751;28;20123;-30
2022/12/15 03:02:02;;;;;;;5.75;2.50;;;21.70;40.00;;;19.93;44.02;94614.53;5051768;28;20045;-31
2022/12/15 03:04:27;;;;;;;3.97;2.70;;;21.60;39.80;;;19.94;42.92;94620.69;4999394;28;20046;-31
2022/12/15 03:06:57;;;;;;;3.35;2.05;;;21.70;39.80;;;19.97;42.38;94620.09;5014556;28;20160;-31
2022/12/15 03:09:23;;;;;;;3.70;1.83;;;21.70;39.90;;;19.99;42.91;94632.09;5032175;28;20638;-31
2022/12/15 03:11:48;;;;;;;3.60;2.10;;;21.70;39.90;;;20.01;42.61;94629.94;5031805;28;20086;-31
2022/12/15 03:14:14;;;;;;;3.00;1.90;;;21.80;39.80;;;20.06;42.57;94637.06;5032287;28;20377;-30
2022/12/15 03:16:40;;;;;;;4.43;2.30;;;21.70;39.80;;;20.09;43.13;94636.50;5029820;28;20842;-30
2022/12/15 03:19:06;;;;;;;4.32;2.15;;;21.80;39.80;;;20.12;42.77;94647.41;5032008;28;20112;-31
2022/12/15 03:21:32;;;;;;;2.58;1.88;;;21.80;39.70;;;20.16;43.19;94643.13;5031358;28;20068;-31
2022/12/15 03:23:57;;;;;;;3.05;1.95;;;21.80;39.70;;;20.21;42.90;94644.13;5032018;28;20133;-31
2022/12/15 03:26:23;;;;;;;4.82;2.15;;;21.90;39.80;;;20.24;42.85;94638.22;5030846;28;20095;-32
2022/12/15 03:28:49;;;;;;;4.15;2.30;;;21.90;39.70;;;20.26;42.60;94636.84;5031151;28;20103;-30
2022/12/15 03:31:15;;;;;;;3.58;1.83;;;22.00;39.60;;;20.28;42.92;94628.56;5046324;28;20107;-33
2022/12/15 03:33:40;;;;;;;4.50;2.55;;;21.90;39.60;;;20.30;42.66;94637.06;5040275;28;20039;-30
2022/12/15 03:36:07;;;;;;;3.75;2.65;;;22.00;39.50;;;20.31;42.43;94638.66;5045562;28;20478;-31
2022/12/15 03:38:32;;;;;;;3.67;2.38;;;22.00;39.50;;;20.34;43.21;94635.41;5050509;28;20043;-30
2022/12/15 03:40:58;;;;;;;3.22;1.95;;;22.00;39.50;;;20.36;43.13;94630.56;5051122;28;20029;-30
2022/12/15 03:43:24;;;;;;;3.75;2.33;;;22.00;39.50;;;20.38;43.01;94639.13;5051332;28;20245;-30
2022/12/15 03:45:50;;;;;;;4.93;2.35;;;22.00;39.50;;;20.39;42.92;94638.84;5051364;28;20549;-30
2022/12/15 03:48:16;;;;;;;4.38;2.13;;;22.00;39.50;;;20.40;42.42;94642.31;5050167;28;20057;-31
2022/12/15 03:50:43;;;;;;;3.47;1.88;;;22.00;39.50;;;20.41;41.93;94654.59;5049836;28;20040;-31
2022/12/15 03:53:09;;;;;;;3.92;2.30;;;22.00;39.50;;;20.41;42.25;94649.25;5051465;28;20029;-30
2022/12/15 03:55:34;;;;;;;3.70;2.33;;;22.00;39.50;;;20.40;42.50;94653.00;5051028;28;20048;-30
2022/12/15 03:58:00;;;;;;;4.40;2.10;;;22.00;39.60;;;20.41;43.04;94649.25;5051255;28;20052;-30
2022/12/15 04:00:27;;;;;;;3.85;2.10;;;22.00;39.50;;;20.41;42.26;94659.94;5049652;28;20120;-31
2022/12/15 04:02:53;;;;;;;4.30;2.05;;;22.00;39.50;;;20.41;43.16;94665.28;5050472;28;20461;-30
2022/12/15 04:05:33;;;;;;;5.35;2.42;;;22.10;39.60;;;20.41;42.05;94654.59;5042336;28;20061;-31
2022/12/15 04:08:00;;;;;;;5.05;2.47;;;22.00;39.60;;;20.39;42.70;94654.06;5051095;28;20029;-30
2022/12/15 04:10:28;;;;;;;3.33;2.22;;;22.00;39.50;;;20.39;42.87;94662.06;5049792;28;20505;-30
2022/12/15 04:13:04;;;;;;;5.80;2.30;;;22.00;39.60;;;20.36;43.05;94662.63;5051102;28;20037;-30
2022/12/15 04:15:30;;;;;;;4.38;2.50;;;22.10;39.50;;;20.36;42.68;94658.06;5050370;28;20033;-31
2022/12/15 04:17:57;;;;;;;5.22;2.17;;;22.00;39.40;;;20.36;42.66;94663.41;5050805;28;20224;-32
2022/12/15 04:20:22;;;;;;;4.97;2.40;;;22.10;39.60;;;20.37;42.26;94675.72;5049653;28;20095;-31
2022/12/15 04:22:49;;;;;;;4.70;2.85;;;22.10;39.70;;;20.36;42.03;94682.13;5050797;28;20091;-30
2022/12/15 05:33:58;;;;;;;10.90;3.25;;;22.10;43.40;;;20.46;46.89;94732.00;5048309;28;20063;-30
2022/12/15 05:36:23;;;;;;;14.90;3.53;;;22.10;43.00;;;20.46;46.72;94743.47;5032155;28;20034;-31
2022/12/15 05:38:52;;;;;;;11.80;3.40;;;22.10;42.90;;;20.46;46.40;94743.47;5029193;28;20068;-30
2022/12/15 05:41:19;;;;;;;9.93;3.03;;;22.10;42.60;;;20.46;46.58;94737.34;5028952;28;20072;-30
2022/12/15 05:43:44;;;;;;;11.68;4.18;;;22.20;42.20;;;20.45;45.80;94749.09;5029064;28;20049;-31
2022/12/15 05:46:11;;;;;;;8.32;4.03;;;22.20;41.90;;;20.46;45.48;94753.38;5029357;28;20116;-31
2022/12/15 05:48:37;;;;;;;9.88;5.03;;;22.20;42.00;;;20.46;45.69;94756.03;5010859;28;20057;-31
2022/12/15 05:51:08;;;;;;;7.70;4.03;;;22.20;41.60;;;20.46;44.87;94758.69;5028797;28;20053;-31
2022/12/15 05:53:35;;;;;;;13.80;3.78;;;22.10;41.60;;;20.45;44.91;94738.41;5029217;28;20076;-30
2022/12/15 05:56:03;;;;;;;10.85;3.83;;;22.10;41.50;;;20.44;44.54;94742.97;5029455;28;20120;-31
2022/12/15 05:58:28;;;;;;;7.35;3.78;;;22.10;41.30;;;20.43;45.14;94740.56;5028081;28;20117;-30
2022/12/15 06:01:00;;;;;;;8.85;3.70;;;22.10;40.90;;;20.43;44.24;94744.03;5028892;28;20116;-30
2022/12/15 06:03:26;;;;;;;6.43;3.90;;;22.10;41.10;;;20.40;44.25;94744.63;5022197;28;20048;-30
2022/12/15 06:05:52;;;;;;;6.55;4.05;;;22.10;41.10;;;20.42;44.57;94752.34;5042917;28;20105;-30
2022/12/15 06:08:18;;;;;;;8.18;3.95;;;22.10;41.20;;;20.42;44.33;94752.34;5027333;28;20065;-29
2022/12/15 06:10:43;;;;;;;6.22;3.50;;;22.10;41.10;;;20.40;44.64;94749.13;5033221;28;20396;-30
2022/12/15 06:13:09;;;;;;;8.68;3.60;;;22.10;41.10;;;20.39;44.67;94759.03;5023928;28;20120;-30
2022/12/15 06:15:35;;;;;;;6.40;4.07;;;22.10;41.00;;;20.39;44.52;94767.03;5027764;28;20186;-30
2022/12/15 06:18:00;;;;;;;7.13;4.00;;;22.10;41.00;;;20.39;44.27;94779.59;5030558;28;20120;-34
2022/12/15 06:20:26;;;;;;;6.05;3.38;;;22.10;41.00;;;20.39;44.43;94784.94;5023481;28;20029;-30
2022/12/15 06:22:52;;;;;;;4.93;3.30;;;22.10;41.00;;;20.38;44.21;94778.78;5030766;28;20116;-30
2022/12/15 06:25:18;;;;;;;7.93;3.53;;;22.10;40.90;;;20.39;44.03;94776.91;5037505;28;20119;-33
2022/12/15 06:27:43;;;;;;;5.47;3.47;;;22.10;40.90;;;20.38;44.68;94775.31;5015760;28;20463;-30
2022/12/15 06:30:10;;;;;;;6.00;3.60;;;22.10;40.80;;;20.38;43.92;94784.13;5027738;28;20120;-29
2022/12/15 06:32:35;;;;;;;5.75;3.05;;;22.10;40.90;;;20.37;44.85;94787.09;5029580;28;20045;-30
2022/12/15 06:35:01;;;;;;;6.65;3.50;;;22.10;40.90;;;20.37;44.20;94787.09;5038431;28;20067;-30
2022/12/15 06:37:27;;;;;;;8.52;3.95;;;22.10;40.80;;;20.36;44.76;94796.94;5046780;28;20037;-29
2022/12/15 06:39:53;;;;;;;5.65;3.45;;;22.10;40.70;;;20.35;43.92;94786.53;5047816;28;20116;-30
2022/12/15 06:42:18;;;;;;;4.18;2.95;;;22.10;40.80;;;20.36;44.13;94798.81;5011717;28;20410;-30
2022/12/15 06:44:44;;;;;;;6.85;3.67;;;22.10;40.70;;;20.36;44.12;94801.50;5022996;28;20068;-30
2022/12/15 06:47:10;;;;;;;5.43;3.28;;;22.10;40.80;;;20.35;44.71;94799.91;5031965;28;20454;-30
2022/12/15 06:49:36;;;;;;;6.78;3.72;;;22.10;40.70;;;20.34;44.85;94793.75;5026710;28;20079;-30
2022/12/15 06:52:02;;;;;;;6.68;3.40;;;22.10;40.60;;;20.34;43.63;94798.31;5032161;28;20125;-30
2022/12/15 06:54:27;;;;;;;5.45;3.58;;;22.10;40.60;;;20.33;43.84;94808.19;5026926;28;20127;-30
2022/12/15 06:56:53;;;;;;;4.80;3.42;;;22.10;40.60;;;20.34;44.45;94814.31;5036611;28;20052;-30
2022/12/15 06:59:19;;;;;;;8.02;3.60;;;22.10;40.70;;;20.34;44.40;94817.00;5024137;28;20116;-30
2022/12/15 07:01:45;;;;;;;3.78;3.00;;;22.10;40.60;;;20.32;44.34;94811.94;5020859;28;20494;-30
2022/12/15 07:04:10;;;;;;;5.68;3.60;;;22.00;40.60;;;20.32;44.46;94825.28;5034773;28;20149;-35
2022/12/15 07:06:37;;;;;;;4.47;3.22;;;22.10;40.60;;;20.32;44.07;94816.50;5033486;28;20128;-37
2022/12/15 07:09:05;;;;;;;6.25;3.20;;;22.00;40.70;;;20.31;44.35;94817.56;5013409;28;20048;-33
2022/12/15 07:11:31;;;;;;;5.75;3.38;;;22.00;40.60;;;20.31;44.30;94809.56;5029549;28;20034;-38
2022/12/15 07:13:57;;;;;;;4.38;2.85;;;22.00;40.60;;;20.31;43.83;94820.22;5013074;28;20602;-34
2022/12/15 07:16:23;;;;;;;6.40;3.28;;;22.10;40.60;;;20.29;44.49;94820.53;5005244;28;20382;-30
2022/12/15 07:18:49;;;;;;;5.95;3.55;;;22.00;40.50;;;20.30;44.13;94826.66;5027688;28;20047;-31
2022/12/15 07:21:15;;;;;;;5.40;3.95;;;22.00;40.60;;;20.30;43.43;94826.66;5038968;28;20033;-29
2022/12/15 07:23:43;;;;;;;4.90;2.90;;;22.10;40.10;;;20.29;43.35;94827.72;5042043;28;20064;-30
2022/12/15 07:26:09;;;;;;;5.22;3.17;;;22.00;40.50;;;20.29;43.67;94830.41;5039729;28;20038;-30
2022/12/15 07:28:35;;;;;;;4.65;3.38;;;22.10;40.50;;;20.30;43.82;94845.34;5029628;28;20083;-32
2022/12/15 07:31:06;;;;;;;4.97;3.25;;;22.00;40.50;;;20.30;44.46;94845.34;5027745;28;20036;-29
2022/12/15 07:33:32;;;;;;;5.97;3.40;;;22.00;40.50;;;20.30;44.19;94848.03;5034854;28;20068;-30
2022/12/15 07:35:59;;;;;;;4.05;3.40;;;22.00;40.50;;;20.30;43.43;94834.66;5033895;28;20029;-30
2022/12/15 07:38:26;;;;;;;6.25;3.40;;;22.10;40.50;;;20.30;44.10;94837.34;5028515;28;20388;-30
2022/12/15 07:40:51;;;;;;;5.35;3.53;;;22.10;40.50;;;20.29;43.61;94831.19;5030080;28;20052;-30
2022/12/15 07:43:17;;;;;;;6.15;3.30;;;22.10;40.40;;;20.26;43.56;94828.31;5029453;28;20518;-30
2022/12/15 07:45:43;;;;;;;4.05;3.30;;;22.10;40.50;;;20.29;43.62;94827.72;5044449;28;20515;-31
2022/12/15 07:48:09;;;;;;;4.60;3.40;;;22.00;40.50;;;20.29;43.63;94825.06;5050613;28;20057;-30
2022/12/15 07:50:38;;;;;;;4.28;2.92;;;22.00;40.50;;;20.29;43.71;94827.72;5045588;28;20050;-30
2022/12/15 07:53:04;;;;;;;6.53;3.20;;;22.00;40.40;;;20.29;43.72;94822.41;5028580;28;20060;-29
2022/12/15 07:55:31;;;;;;;4.72;3.03;;;22.10;40.40;;;20.30;44.34;94815.97;5032170;28;20498;-31
2022/12/15 07:57:57;;;;;;;4.20;3.35;;;22.10;40.40;;;20.29;44.36;94811.72;5034970;28;20046;-31
2022/12/15 08:00:22;;;;;;;4.80;3.50;;;22.00;40.40;;;20.30;43.90;94797.28;5026733;28;20569;-30
2022/12/15 08:02:48;;;;;;;7.05;3.60;;;22.00;40.40;;;20.30;43.40;94803.41;5031273;28;20604;-34
2022/12/15 08:05:14;;;;;;;3.92;3.10;;;22.00;40.30;;;20.30;43.18;94814.09;5046191;28;20458;-29
2022/12/15 08:07:40;;;;;;;5.22;3.17;;;22.00;40.30;;;20.31;43.33;94806.88;5027422;28;20667;-30
2022/12/15 08:10:06;;;;;;;4.28;3.25;;;22.00;40.40;;;20.30;43.82;94800.75;5038323;28;20045;-30
2022/12/15 08:12:32;;;;;;;6.05;3.28;;;22.10;40.30;;;20.30;43.09;94799.94;5029908;28;20038;-31
2022/12/15 08:14:57;;;;;;;4.03;3.03;;;22.00;40.30;;;20.31;43.74;94804.22;5029219;28;20085;-34
2022/12/15 08:17:23;;;;;;;4.30;3.58;;;22.10;40.20;;;20.32;43.30;94816.50;5029553;28;20137;-30
2022/12/15 08:19:49;;;;;;;4.45;3.47;;;22.10;40.30;;;20.31;43.40;94817.56;5029883;28;20380;-29
2022/12/15 08:22:15;;;;;;;4.78;3.67;;;22.00;40.20;;;20.32;43.25;94835.19;5027637;28;20121;-30
2022/12/15 08:24:40;;;;;;;4.75;3.30;;;22.00;40.20;;;20.31;43.83;94836.25;5028246;28;20553;-30
2022/12/15 08:27:07;;;;;;;4.07;3.20;;;22.00;40.20;;;20.31;43.83;94842.41;5041620;28;20068;-31
2022/12/15 08:29:33;;;;;;;4.82;3.38;;;22.00;40.30;;;20.31;44.11;94847.72;5048948;28;20032;-31
2022/12/15 08:31:59;;;;;;;6.38;4.03;;;22.00;40.20;;;20.32;43.31;94845.84;5047847;28;20037;-29
2022/12/15 08:34:24;;;;;;;5.38;3.42;;;22.00;40.20;;;20.32;43.30;94848.53;5035569;28;20091;-30
2022/12/15 08:36:50;;;;;;;7.68;3.65;;;22.00;40.20;;;20.33;43.14;94866.94;5008480;28;20025;-30
2022/12/15 08:39:16;;;;;;;5.88;3.60;;;22.00;40.20;;;20.34;43.23;94868.53;5009630;28;20125;-30
2022/12/15 08:41:42;;;;;;;4.40;3.13;;;22.00;40.10;;;20.34;43.33;94870.41;5021046;28;20037;-30
2022/12/15 08:44:08;;;;;;;4.75;3.45;;;22.10;40.00;;;20.35;43.36;94890.69;5034055;28;20419;-30
2022/12/15 08:46:34;;;;;;;5.03;3.67;;;22.00;40.10;;;20.35;43.10;94896.03;5045776;28;20029;-30
2022/12/15 08:49:00;;;;;;;4.72;3.10;;;22.10;40.00;;;20.34;43.20;94899.78;5016733;28;20041;-30
2022/12/15 08:51:28;;;;;;;5.35;3.30;;;22.10;40.10;;;20.35;43.03;94904.84;5039639;28;20059;-30
2022/12/15 08:53:57;;;;;;;4.88;3.78;;;22.10;40.10;;;20.36;43.58;94903.75;5032103;28;20041;-30
2022/12/15 08:56:23;;;;;;;4.53;3.30;;;22.10;40.10;;;20.36;43.44;94897.63;5018092;28;20045;-30
2022/12/15 08:58:53;;;;;;;5.57;3.50;;;22.00;40.10;;;20.36;42.66;94894.97;5010576;28;20037;-30
2022/12/15 09:01:21;;;;;;;5.47;3.28;;;22.00;40.00;;;20.36;42.66;94902.97;5028600;28;20081;-30
2022/12/15 09:03:47;;;;;;;4.35;3.28;;;22.10;40.00;;;20.38;42.99;94900.84;5038438;28;20123;-30
2022/12/15 09:06:16;;;;;;;4.22;3.30;;;22.00;39.90;;;20.39;43.26;94902.44;5033639;28;20029;-29
2022/12/15 09:08:41;;;;;;;4.25;3.15;;;22.00;40.10;;;20.39;43.55;94897.09;5027874;28;20041;-30
2022/12/15 09:11:07;;;;;;;4.78;3.40;;;22.00;40.10;;;20.45;43.35;94901.34;5028485;28;20156;-30
2022/12/15 09:13:33;;;;;;;5.50;3.65;;;22.00;40.10;;;20.48;43.63;94896.22;5032740;28;20117;-30
2022/12/15 09:16:06;;;;;;;4.30;3.00;;;22.10;40.20;;;20.54;42.86;94896.97;5037352;28;20047;-29
2022/12/15 09:18:33;;;;;;;4.03;2.95;;;22.10;40.10;;;20.56;43.28;94886.00;5033264;28;20041;-29
2022/12/15 09:21:03;;;;;;;3.97;3.00;;;22.10;40.10;;;20.60;42.87;94879.84;5024479;28;20037;-30
2022/12/15 09:23:29;;;;;;;4.43;2.75;;;22.10;40.00;;;20.61;43.27;94870.75;5029692;28;20110;-31
2022/12/15 09:26:04;;;;;;;3.92;2.97;;;22.10;40.00;;;20.65;42.74;94863.75;5011693;28;20037;-30
2022/12/15 09:28:30;;;;;;;4.20;3.30;;;22.10;40.00;;;20.66;43.02;94860.00;5042329;28;20051;-30
2022/12/15 09:31:32;;;;;;;8.18;3.08;;;22.10;40.00;;;20.70;43.20;94863.72;5038150;28;20043;-31
2022/12/15 09:33:59;;;;;;;5.75;3.17;;;22.10;40.00;;;20.69;42.93;94854.09;4991546;28;20126;-30
2022/12/15 09:36:25;;;;;;;4.90;3.35;;;22.10;40.00;;;20.70;42.61;94855.69;5030908;28;20044;-29
2022/12/15 09:38:51;;;;;;;4.35;3.15;;;22.10;40.00;;;20.71;42.51;94857.28;5032688;28;20126;-31
2022/12/15 09:41:21;;;;;;;3.65;2.85;;;22.10;40.00;;;20.72;43.15;94858.88;5012864;28;20193;-30
2022/12/15 09:43:59;;;;;;;5.00;3.40;;;22.10;40.00;;;20.72;43.12;94850.06;5040130;28;20045;-31
2022/12/15 09:46:38;;;;;;;5.40;3.22;;;22.20;40.00;;;20.71;43.04;94848.47;5026489;28;20060;-30
2022/12/15 09:49:35;;;;;;;3.92;3.22;;;22.20;40.00;;;20.71;42.93;94840.47;5026939;28;20044;-29
2022/12/15 09:52:10;;;;;;;5.97;3.20;;;22.20;40.00;;;20.72;42.76;94847.41;5014939;28;20494;-30
2022/12/15 09:54:36;;;;;;;4.65;3.30;;;22.20;40.00;;;20.72;42.92;94853.53;4993879;28;20335;-30
2022/12/15 09:57:29;;;;;;;4.72;3.33;;;22.20;40.00;;;20.73;43.46;94836.41;4995034;28;20033;-29
2022/12/15 09:59:57;;;;;;;5.00;3.30;;;22.20;39.90;;;20.74;42.67;94835.34;5007256;28;20037;-30
2022/12/15 10:02:49;;;;;;;6.68;3.75;;;22.20;39.90;;;20.77;43.04;94847.34;5007083;28;20519;-31
2022/12/15 10:05:44;;;;;;;3.88;2.83;;;22.20;39.90;;;20.75;42.95;94836.94;5037534;28;20152;-31
2022/12/15 10:08:12;;;;;;;4.78;2.97;;;22.20;39.90;;;20.76;42.91;94845.75;5020621;28;20092;-30
2022/12/15 10:10:41;;;;;;;3.63;3.00;;;22.20;40.10;;;20.75;43.19;94842.28;5014040;28;20046;-29
2022/12/15 10:13:37;;;;;;;6.07;3.45;;;22.20;39.90;;;20.78;42.19;94835.56;5010779;28;20041;-30
2022/12/15 10:16:20;;;;;;;4.35;3.15;;;22.20;39.90;;;20.76;42.64;94840.41;4998374;28;20041;-30
2022/12/15 10:19:18;;;;;;;5.35;3.28;;;22.20;39.90;;;20.75;43.01;94831.59;5041613;28;20111;-30
2022/12/15 10:21:44;;;;;;;6.28;3.17;;;22.20;39.90;;;20.75;43.08;94828.13;5014102;28;20454;-30
2022/12/15 10:24:19;;;;;;;3.72;2.92;;;22.20;39.90;;;20.75;43.05;94820.91;5004372;28;20086;-29
2022/12/15 10:27:05;;;;;;;5.05;3.15;;;22.20;39.90;;;20.74;42.66;94808.63;5033047;28;20092;-29
2022/12/15 10:29:44;;;;;;;4.00;3.22;;;22.30;39.90;;;20.74;42.50;94792.59;4974494;28;20112;-32
2022/12/15 10:32:19;;;;;;;4.50;3.53;;;22.30;39.90;;;20.75;42.98;94804.06;5034087;28;20075;-30
2022/12/15 10:34:45;;;;;;;6.72;3.30;;;22.30;39.80;;;20.73;43.19;94807.03;5022864;28;20041;-30
2022/12/15 10:37:17;;;;;;;5.13;3.33;;;22.30;39.80;;;20.74;42.84;94813.97;5027079;28;20048;-30
2022/12/15 10:39:47;;;;;;;4.72;3.70;;;22.30;39.80;;;20.73;42.31;94820.38;5029682;28;20034;-29
2022/12/15 10:42:22;;;;;;;4.68;3.28;;;22.30;39.70;;;20.74;42.42;94824.66;5031426;28;20099;-30
2022/12/15 10:44:51;;;;;;;4.35;3.05;;;22.20;39.80;;;20.72;43.09;94829.47;5017461;28;20539;-32
2022/12/15 10:47:25;;;;;;;4.28;3.58;;;22.20;39.80;;;20.73;42.83;94828.41;5001655;28;20100;-29
2022/12/15 10:49:52;;;;;;;5.07;3.58;;;22.20;39.90;;;20.73;42.90;94836.41;5031251;28;20034;-30
2022/12/15 10:52:34;;;;;;;6.45;3.90;;;22.20;39.80;;;20.75;43.46;94834.25;5034730;28;20121;-30
2022/12/15 10:55:00;;;;;;;6.05;3.63;;;22.20;40.00;;;20.73;42.48;94823.06;5028853;28;20481;-29
2022/12/15 10:57:30;;;;;;;6.72;3.63;;;22.20;40.00;;;20.74;43.39;94813.97;5010946;28;20037;-30
2022/12/15 11:00:14;;;;;;;5.18;3.40;;;22.20;40.20;;;20.76;44.42;94816.34;5014152;28;20505;-31
2022/12/15 11:02:41;;;;;;;5.57;3.80;;;22.30;40.50;;;20.76;43.68;94806.44;5030768;28;20507;-30
2022/12/15 11:05:15;;;;;;;6.35;4.78;;;22.20;41.00;;;20.77;45.31;94829.41;5043833;28;20121;-31
2022/12/15 11:07:45;;;;;;;6.53;4.47;;;22.20;41.50;;;20.76;45.06;94813.69;5050541;28;20045;-31
2022/12/15 11:13:16;;;;;;;6.28;3.80;;;22.20;41.80;;;20.78;45.42;94771.44;5011430;28;20053;-29
2022/12/15 11:15:51;;;;;;;5.05;3.75;;;22.30;41.80;;;20.83;45.74;94789.31;5009876;28;20041;-30
2022/12/15 11:18:26;;;;;;;5.88;3.92;;;22.30;41.70;;;20.85;45.46;94795.16;4994296;28;20100;-31
2022/12/15 11:21:29;;;;;;;5.70;4.03;;;22.30;41.80;;;20.88;44.78;94783.88;5010808;28;20080;-29
2022/12/15 11:24:14;;;;;;;7.10;3.83;;;22.30;41.50;;;20.89;44.86;94793.50;5014642;28;20045;-30
2022/12/15 11:27:01;;;;;;;6.68;4.90;;;22.20;41.60;;;20.91;44.59;94802.03;5029365;28;20041;-30
2022/12/15 11:29:45;;;;;;;8.77;5.60;;;22.30;41.30;;;20.90;43.71;94779.06;5029439;28;20045;-29
2022/12/15 11:32:11;;;;;;;6.18;5.10;;;22.30;41.00;;;20.88;44.02;94765.19;5039628;28;20033;-30
2022/12/15 11:34:46;;;;;;;7.63;5.15;;;22.30;41.00;;;20.89;43.94;94764.09;5036325;28;20096;-30
2022/12/15 11:37:39;;;;;;;6.03;4.53;;;22.30;40.70;;;20.90;43.81;94768.38;5015727;28;20451;-30
2022/12/15 11:40:23;;;;;;;6.38;4.80;;;22.40;40.70;;;20.89;43.85;94777.47;5030269;28;20029;-30
2022/12/15 11:42:52;;;;;;;6.30;4.85;;;22.30;40.70;;;20.86;43.86;94783.38;4992584;28;20038;-30
2022/12/15 11:45:55;;;;;;;7.80;4.90;;;22.40;40.70;;;20.87;43.80;94768.94;5010211;28;20033;-30
2022/12/15 11:48:26;;;;;;;6.25;4.38;;;22.30;40.70;;;20.84;44.31;94764.16;5009589;28;20037;-29
2022/12/15 11:51:05;;;;;;;7.50;4.35;;;22.30;40.70;;;20.85;43.80;94749.72;4993157;28;20038;-31
2022/12/15 11:54:02;;;;;;;6.68;5.15;;;22.40;40.70;;;20.86;44.26;94751.31;4992841;28;20033;-30
2022/12/15 11:56:50;;;;;;;9.60;4.78;;;22.40;40.70;;;20.84;44.24;94774.84;5028545;28;20045;-32
2022/12/15 12:00:02;;;;;;;6.18;4.50;;;22.30;40.70;;;20.82;43.81;94788.50;5018084;28;20045;-30
2022/12/15 12:03:00;;;;;;;5.15;4.22;;;22.30;40.70;;;20.80;44.51;94783.41;5036268;28;20036;-30
2022/12/15 12:05:37;;;;;;;5.82;4.40;;;22.30;40.70;;;20.80;44.20;94780.75;5002487;28;20040;-29
2022/12/15 12:08:34;;;;;;;6.30;4.90;;;22.30;40.80;;;20.82;44.13;94785.00;5001324;28;20094;-30
2022/12/15 12:11:19;;;;;;;5.68;4.53;;;22.30;40.70;;;20.79;43.83;94792.53;5017904;28;20061;-30
2022/12/15 12:14:11;;;;;;;5.40;4.22;;;22.30;40.70;;;20.78;44.07;94788.25;5016303;28;20072;-31
2022/12/15 12:17:02;;;;;;;6.25;4.60;;;22.30;40.70;;;20.79;44.36;94781.03;5008862;28;20065;-30
2022/12/15 12:19:27;;;;;;;;;;;22.30;40.70;;;20.76;43.53;94778.94;4993634;28;20077;-30
2022/12/15 12:22:20;;;;;;;5.60;4.28;;;22.30;40.70;;;20.73;43.85;94764.28;5010041;28;19963;-30
2022/12/15 12:25:11;;;;;;;6.25;5.00;;;22.30;40.70;;;20.75;43.77;94762.09;4985769;28;20045;-30
2022/12/15 12:27:53;;;;;;;;;;;22.30;40.60;;;20.70;43.98;94743.47;5014040;28;20323;-31
2022/12/15 12:30:25;;;;;;;7.22;4.47;;;22.30;40.60;;;20.70;43.78;94732.78;5013069;28;19920;-30
2022/12/15 12:33:02;;;;;;;7.93;4.45;;;22.30;40.60;;;20.71;43.85;94726.34;5040406;28;20116;-30
2022/12/15 12:35:56;;;;;;;6.78;4.55;;;22.30;40.60;;;20.74;43.68;94715.09;5008172;28;20064;-30
2022/12/15 12:38:32;;;;;;;7.72;4.30;;;22.30;40.60;;;20.76;43.47;94704.91;5029525;28;20080;-32
2022/12/15 12:41:07;;;;;;;15.73;5.32;;;22.30;40.70;;;20.78;44.45;94699.28;5011068;28;20052;-30
2022/12/15 12:43:43;;;;;;;5.90;4.80;;;22.30;40.60;;;20.82;43.87;94696.81;5027671;28;20515;-30
2022/12/15 12:46:24;;;;;;;6.90;4.75;;;22.30;40.60;;;20.81;43.40;94677.31;5010780;28;20030;-30
2022/12/15 12:49:13;;;;;;;6.45;4.78;;;22.30;40.60;;;20.87;43.83;94678.06;5025317;28;20109;-30
2022/12/15 12:51:40;;;;;;;5.38;4.30;;;22.40;40.60;;;20.88;43.79;94674.31;5027196;28;20120;-30
2022/12/15 12:54:33;;;;;;;5.57;4.30;;;22.40;40.50;;;20.91;43.47;94679.06;5011126;28;20041;-31
2022/12/15 12:56:59;;;;;;;6.00;4.13;;;22.40;40.50;;;20.88;44.08;94671.63;5028139;28;20442;-30
2022/12/15 12:59:28;;;;;;;5.15;4.40;;;22.40;40.50;;;20.90;43.41;94674.81;5027182;28;20044;-31
2022/12/15 13:01:55;;;;;;;7.97;4.90;;;22.40;40.50;;;20.91;43.47;94673.72;5028193;28;20037;-31
2022/12/15 13:04:32;;;;;;;5.95;3.90;;;22.40;40.40;;;20.92;43.32;94676.13;5035641;28;20122;-30
2022/12/15 13:07:00;;;;;;;5.80;4.40;;;22.40;40.40;;;20.90;43.42;94675.59;5030432;28;20052;-29